CEB3952 RPMD-RPLL
Flight info
| Callsign | CEB3952 |
|---|---|
| Flight time | 1h 23m |
| Altitude | 36000 |
| Route | ANKIN3P ANKIN B473 LAIYA LAIYA3R |
| Aircraft | A321/M-SDE3FGHIRWY/LB1 |
Departure
| Time | 2026-05-07 16:06 |
|---|---|
| Airport | Francisco Bangoy International Airport (RPMD) |
Arrival
| Time | 2026-05-07 17:29 |
|---|---|
| Airport | Ninoy Aquino International Airport (RPLL) |
| Time | Latitude | Longitude | Altitude | Speed | Heading |
|---|---|---|---|---|---|
| 2026-05-07 15:52 | 7.12873 | 125.64476 | 104 ft | 0 kts | 319° |
| 2026-05-07 15:56 | 7.12867 | 125.64481 | 104 ft | 2 kts | 319° |
| 2026-05-07 15:57 | 7.12855 | 125.64492 | 104 ft | 2 kts | 319° |
| 2026-05-07 15:57 | 7.12843 | 125.64502 | 104 ft | 2 kts | 319° |
| 2026-05-07 15:57 | 7.12832 | 125.64512 | 104 ft | 2 kts | 319° |
| 2026-05-07 15:57 | 7.12820 | 125.64520 | 104 ft | 2 kts | 347° |
| 2026-05-07 15:58 | 7.12805 | 125.64520 | 104 ft | 2 kts | 16° |
| 2026-05-07 15:58 | 7.12792 | 125.64513 | 104 ft | 1 kts | 44° |
| 2026-05-07 15:58 | 7.12788 | 125.64509 | 104 ft | 1 kts | 51° |
| 2026-05-07 15:58 | 7.12787 | 125.64507 | 104 ft | 0 kts | 50° |
| 2026-05-07 16:00 | 7.12793 | 125.64514 | 104 ft | 2 kts | 49° |
| 2026-05-07 16:01 | 7.12813 | 125.64537 | 104 ft | 5 kts | 49° |
| 2026-05-07 16:01 | 7.12847 | 125.64577 | 104 ft | 9 kts | 49° |
| 2026-05-07 16:01 | 7.12894 | 125.64631 | 104 ft | 11 kts | 49° |
| 2026-05-07 16:01 | 7.12954 | 125.64700 | 104 ft | 13 kts | 49° |
| 2026-05-07 16:02 | 7.13013 | 125.64774 | 104 ft | 12 kts | 72° |
| 2026-05-07 16:02 | 7.12968 | 125.64844 | 104 ft | 12 kts | 139° |
| 2026-05-07 16:02 | 7.12901 | 125.64902 | 104 ft | 12 kts | 139° |
| 2026-05-07 16:02 | 7.12893 | 125.64974 | 104 ft | 12 kts | 50° |
| 2026-05-07 16:03 | 7.12952 | 125.65044 | 104 ft | 14 kts | 49° |
| 2026-05-07 16:03 | 7.13021 | 125.65125 | 104 ft | 15 kts | 49° |
| 2026-05-07 16:03 | 7.13097 | 125.65212 | 104 ft | 17 kts | 49° |
| 2026-05-07 16:03 | 7.13178 | 125.65307 | 104 ft | 18 kts | 49° |
| 2026-05-07 16:04 | 7.13263 | 125.65406 | 104 ft | 18 kts | 49° |
| 2026-05-07 16:04 | 7.13349 | 125.65501 | 104 ft | 13 kts | 33° |
| 2026-05-07 16:04 | 7.13433 | 125.65520 | 104 ft | 12 kts | 28° |
| 2026-05-07 16:04 | 7.13445 | 125.65586 | 104 ft | 7 kts | 137° |
| 2026-05-07 16:05 | 7.13416 | 125.65581 | 104 ft | 4 kts | 220° |
| 2026-05-07 16:05 | 7.13403 | 125.65568 | 104 ft | 0 kts | 229° |
| 2026-05-07 16:05 | 7.13402 | 125.65567 | 104 ft | 2 kts | 229° |
| 2026-05-07 16:05 | 7.13243 | 125.65384 | 104 ft | 72 kts | 229° |
| 2026-05-07 16:06 | 7.12748 | 125.64807 | 104 ft | 139 kts | 229° |
| 2026-05-07 16:06 | 7.12018 | 125.63960 | 316 ft | 172 kts | 228° |
| 2026-05-07 16:06 | 7.11232 | 125.63063 | 978 ft | 173 kts | 227° |
| 2026-05-07 16:06 | 7.10605 | 125.62066 | 1685 ft | 174 kts | 257° |
| 2026-05-07 16:07 | 7.10829 | 125.60914 | 2090 ft | 179 kts | 304° |
| 2026-05-07 16:07 | 7.11732 | 125.59972 | 2343 ft | 194 kts | 316° |
| 2026-05-07 16:07 | 7.12785 | 125.59018 | 2631 ft | 209 kts | 317° |
| 2026-05-07 16:07 | 7.13910 | 125.58007 | 2922 ft | 224 kts | 317° |
| 2026-05-07 16:08 | 7.14977 | 125.57040 | 3132 ft | 242 kts | 316° |
| 2026-05-07 16:08 | 7.16259 | 125.55869 | 3453 ft | 259 kts | 316° |
| 2026-05-07 16:08 | 7.17640 | 125.54602 | 3898 ft | 272 kts | 316° |
| 2026-05-07 16:08 | 7.19045 | 125.53313 | 4597 ft | 275 kts | 316° |
| 2026-05-07 16:09 | 7.20457 | 125.52015 | 5327 ft | 276 kts | 316° |
| 2026-05-07 16:09 | 7.21887 | 125.50699 | 6050 ft | 278 kts | 316° |
| 2026-05-07 16:09 | 7.23302 | 125.49393 | 6764 ft | 280 kts | 315° |
| 2026-05-07 16:09 | 7.24759 | 125.48047 | 7499 ft | 282 kts | 315° |
| 2026-05-07 16:10 | 7.26207 | 125.46707 | 8227 ft | 284 kts | 315° |
| 2026-05-07 16:10 | 7.27665 | 125.45360 | 8950 ft | 285 kts | 315° |
| 2026-05-07 16:10 | 7.29140 | 125.43997 | 9666 ft | 287 kts | 315° |
| 2026-05-07 16:10 | 7.30618 | 125.42633 | 10355 ft | 289 kts | 316° |
| 2026-05-07 16:11 | 7.32126 | 125.41241 | 10726 ft | 303 kts | 316° |
| 2026-05-07 16:11 | 7.33737 | 125.39816 | 11054 ft | 317 kts | 319° |
| 2026-05-07 16:11 | 7.35520 | 125.38460 | 11646 ft | 322 kts | 323° |
| 2026-05-07 16:11 | 7.37389 | 125.37191 | 12334 ft | 324 kts | 324° |
| 2026-05-07 16:12 | 7.39273 | 125.35934 | 12951 ft | 327 kts | 324° |
| 2026-05-07 16:12 | 7.41064 | 125.34741 | 13486 ft | 330 kts | 324° |
| 2026-05-07 16:12 | 7.43028 | 125.33431 | 14066 ft | 334 kts | 324° |
| 2026-05-07 16:12 | 7.44966 | 125.32137 | 14622 ft | 338 kts | 324° |
| 2026-05-07 16:13 | 7.46926 | 125.30827 | 15164 ft | 341 kts | 324° |
| 2026-05-07 16:13 | 7.48898 | 125.29509 | 15695 ft | 345 kts | 324° |
| 2026-05-07 16:13 | 7.50933 | 125.28148 | 16227 ft | 349 kts | 324° |
| 2026-05-07 16:13 | 7.52962 | 125.26791 | 16742 ft | 352 kts | 324° |
| 2026-05-07 16:14 | 7.55017 | 125.25416 | 17248 ft | 355 kts | 324° |
| 2026-05-07 16:14 | 7.57080 | 125.24035 | 17740 ft | 359 kts | 324° |
| 2026-05-07 16:14 | 7.59163 | 125.22640 | 18223 ft | 362 kts | 324° |
| 2026-05-07 16:14 | 7.61280 | 125.21223 | 18698 ft | 365 kts | 324° |
| 2026-05-07 16:15 | 7.63420 | 125.19790 | 19166 ft | 369 kts | 324° |
| 2026-05-07 16:15 | 7.65558 | 125.18358 | 19622 ft | 372 kts | 324° |
| 2026-05-07 16:15 | 7.67725 | 125.16908 | 20075 ft | 375 kts | 324° |
| 2026-05-07 16:15 | 7.69924 | 125.15434 | 20526 ft | 378 kts | 325° |
| 2026-05-07 16:16 | 7.72127 | 125.13958 | 20967 ft | 381 kts | 325° |
| 2026-05-07 16:16 | 7.74344 | 125.12472 | 21401 ft | 384 kts | 325° |
| 2026-05-07 16:16 | 7.76588 | 125.10969 | 21830 ft | 387 kts | 325° |
| 2026-05-07 16:16 | 7.78855 | 125.09450 | 22256 ft | 390 kts | 325° |
| 2026-05-07 16:17 | 7.81129 | 125.07925 | 22670 ft | 392 kts | 325° |
| 2026-05-07 16:17 | 7.83417 | 125.06392 | 23077 ft | 395 kts | 325° |
| 2026-05-07 16:17 | 7.85697 | 125.04862 | 23479 ft | 398 kts | 325° |
| 2026-05-07 16:17 | 7.88023 | 125.03303 | 23904 ft | 399 kts | 325° |
| 2026-05-07 16:18 | 7.90350 | 125.01741 | 24302 ft | 402 kts | 325° |
| 2026-05-07 16:18 | 7.92680 | 125.00178 | 24681 ft | 404 kts | 326° |
| 2026-05-07 16:18 | 7.95050 | 124.98589 | 25057 ft | 407 kts | 325° |
| 2026-05-07 16:18 | 7.97353 | 124.96948 | 25422 ft | 409 kts | 322° |
| 2026-05-07 16:19 | 7.99613 | 124.95157 | 25787 ft | 411 kts | 320° |
| 2026-05-07 16:19 | 8.01837 | 124.93346 | 26141 ft | 413 kts | 320° |
| 2026-05-07 16:19 | 8.04101 | 124.91494 | 26491 ft | 416 kts | 320° |
| 2026-05-07 16:19 | 8.06353 | 124.89652 | 26832 ft | 418 kts | 320° |
| 2026-05-07 16:20 | 8.08629 | 124.87794 | 27166 ft | 420 kts | 320° |
| 2026-05-07 16:20 | 8.10923 | 124.85924 | 27495 ft | 422 kts | 320° |
| 2026-05-07 16:20 | 8.13129 | 124.84125 | 27805 ft | 424 kts | 321° |
| 2026-05-07 16:20 | 8.15444 | 124.82237 | 28123 ft | 426 kts | 321° |
| 2026-05-07 16:21 | 8.17744 | 124.80363 | 28427 ft | 428 kts | 321° |
| 2026-05-07 16:21 | 8.20070 | 124.78467 | 28730 ft | 430 kts | 321° |
| 2026-05-07 16:21 | 8.22392 | 124.76574 | 29025 ft | 431 kts | 321° |
| 2026-05-07 16:21 | 8.24756 | 124.74645 | 29311 ft | 433 kts | 321° |
| 2026-05-07 16:22 | 8.27101 | 124.72732 | 29591 ft | 435 kts | 321° |
| 2026-05-07 16:22 | 8.29477 | 124.70794 | 29873 ft | 437 kts | 321° |
| 2026-05-07 16:22 | 8.31841 | 124.68864 | 30144 ft | 438 kts | 321° |
| 2026-05-07 16:22 | 8.34210 | 124.66930 | 30407 ft | 440 kts | 321° |
| 2026-05-07 16:23 | 8.36597 | 124.64982 | 30666 ft | 441 kts | 321° |
| 2026-05-07 16:23 | 8.39004 | 124.63032 | 30917 ft | 443 kts | 322° |
| 2026-05-07 16:23 | 8.41492 | 124.61188 | 31162 ft | 444 kts | 326° |
| 2026-05-07 16:23 | 8.44116 | 124.59466 | 31400 ft | 446 kts | 329° |
| 2026-05-07 16:24 | 8.46803 | 124.57881 | 31634 ft | 447 kts | 330° |
| 2026-05-07 16:24 | 8.49512 | 124.56323 | 31862 ft | 449 kts | 330° |
| 2026-05-07 16:24 | 8.52237 | 124.54761 | 32153 ft | 448 kts | 330° |
| 2026-05-07 16:24 | 8.54943 | 124.53208 | 32481 ft | 447 kts | 330° |
| 2026-05-07 16:25 | 8.57633 | 124.51660 | 32792 ft | 446 kts | 330° |
| 2026-05-07 16:25 | 8.60347 | 124.50096 | 33082 ft | 445 kts | 330° |
| 2026-05-07 16:25 | 8.63028 | 124.48550 | 33360 ft | 444 kts | 330° |
| 2026-05-07 16:25 | 8.65717 | 124.46998 | 33636 ft | 444 kts | 330° |
| 2026-05-07 16:26 | 8.68402 | 124.45448 | 33913 ft | 443 kts | 330° |
| 2026-05-07 16:26 | 8.71064 | 124.43910 | 34176 ft | 442 kts | 330° |
| 2026-05-07 16:26 | 8.73771 | 124.42347 | 34399 ft | 442 kts | 330° |
| 2026-05-07 16:26 | 8.75558 | 124.41315 | 34529 ft | 443 kts | 330° |
| 2026-05-07 16:27 | 8.79105 | 124.39265 | 34779 ft | 444 kts | 330° |
| 2026-05-07 16:27 | 8.81817 | 124.37697 | 34962 ft | 445 kts | 330° |
| 2026-05-07 16:27 | 8.84490 | 124.36151 | 35138 ft | 445 kts | 330° |
| 2026-05-07 16:27 | 8.87199 | 124.34585 | 35310 ft | 446 kts | 330° |
| 2026-05-07 16:28 | 8.89898 | 124.33025 | 35478 ft | 447 kts | 330° |
| 2026-05-07 16:28 | 8.92589 | 124.31467 | 35636 ft | 447 kts | 330° |
| 2026-05-07 16:28 | 8.95318 | 124.29887 | 35789 ft | 448 kts | 330° |
| 2026-05-07 16:29 | 9.00762 | 124.26738 | 35890 ft | 449 kts | 330° |
| 2026-05-07 16:29 | 9.06188 | 124.23598 | 35894 ft | 448 kts | 330° |
| 2026-05-07 16:30 | 9.11631 | 124.20442 | 35895 ft | 447 kts | 330° |
| 2026-05-07 16:30 | 9.17058 | 124.17292 | 35894 ft | 446 kts | 330° |
| 2026-05-07 16:31 | 9.22467 | 124.14151 | 35894 ft | 446 kts | 330° |
| 2026-05-07 16:31 | 9.27732 | 124.11093 | 35894 ft | 446 kts | 330° |
| 2026-05-07 16:32 | 9.33184 | 124.07924 | 35895 ft | 454 kts | 330° |
| 2026-05-07 16:32 | 9.38711 | 124.04715 | 35895 ft | 460 kts | 330° |
| 2026-05-07 16:33 | 9.44165 | 124.01569 | 35895 ft | 465 kts | 330° |
| 2026-05-07 16:33 | 9.49692 | 123.98380 | 35894 ft | 468 kts | 330° |
| 2026-05-07 16:34 | 9.55318 | 123.95116 | 35894 ft | 467 kts | 330° |
| 2026-05-07 16:34 | 9.60999 | 123.91816 | 35894 ft | 468 kts | 330° |
| 2026-05-07 16:35 | 9.66656 | 123.88528 | 35893 ft | 467 kts | 330° |
| 2026-05-07 16:35 | 9.72308 | 123.85241 | 35894 ft | 468 kts | 330° |
| 2026-05-07 16:36 | 9.77948 | 123.81960 | 35894 ft | 468 kts | 330° |
| 2026-05-07 16:36 | 9.83595 | 123.78672 | 35894 ft | 468 kts | 330° |
| 2026-05-07 16:37 | 9.89282 | 123.75362 | 35894 ft | 468 kts | 330° |
| 2026-05-07 16:37 | 9.94927 | 123.72076 | 35894 ft | 468 kts | 330° |
| 2026-05-07 16:38 | 10.00571 | 123.68786 | 35894 ft | 468 kts | 330° |
| 2026-05-07 16:38 | 10.06225 | 123.65486 | 35894 ft | 467 kts | 330° |
| 2026-05-07 16:39 | 10.11028 | 123.62682 | 35894 ft | 468 kts | 330° |
| 2026-05-07 16:39 | 10.16452 | 123.59514 | 35895 ft | 467 kts | 330° |
| 2026-05-07 16:40 | 10.22094 | 123.56216 | 35894 ft | 467 kts | 330° |
| 2026-05-07 16:40 | 10.27718 | 123.52929 | 35894 ft | 467 kts | 330° |
| 2026-05-07 16:41 | 10.33402 | 123.49612 | 35894 ft | 468 kts | 330° |
| 2026-05-07 16:41 | 10.39043 | 123.46324 | 35894 ft | 467 kts | 330° |
| 2026-05-07 16:42 | 10.44679 | 123.43034 | 35894 ft | 468 kts | 330° |
| 2026-05-07 16:42 | 10.50327 | 123.39734 | 35894 ft | 467 kts | 330° |
| 2026-05-07 16:43 | 10.55999 | 123.36417 | 35894 ft | 468 kts | 330° |
| 2026-05-07 16:43 | 10.61660 | 123.33107 | 35894 ft | 467 kts | 330° |
| 2026-05-07 16:44 | 10.67283 | 123.29820 | 35894 ft | 467 kts | 330° |
| 2026-05-07 16:44 | 10.72928 | 123.26521 | 35894 ft | 467 kts | 330° |
| 2026-05-07 16:45 | 10.78581 | 123.23214 | 35894 ft | 468 kts | 330° |
| 2026-05-07 16:45 | 10.84239 | 123.19896 | 35894 ft | 468 kts | 330° |
| 2026-05-07 16:46 | 10.89884 | 123.16583 | 35894 ft | 468 kts | 330° |
| 2026-05-07 16:46 | 10.95523 | 123.13274 | 35894 ft | 468 kts | 330° |
| 2026-05-07 16:47 | 11.01176 | 123.09959 | 35894 ft | 468 kts | 329° |
| 2026-05-07 16:47 | 11.06835 | 123.06638 | 35894 ft | 468 kts | 329° |
| 2026-05-07 16:48 | 11.12487 | 123.03317 | 35894 ft | 467 kts | 329° |
| 2026-05-07 16:48 | 11.18124 | 123.00004 | 35894 ft | 468 kts | 329° |
| 2026-05-07 16:49 | 11.23766 | 122.96685 | 35894 ft | 468 kts | 329° |
| 2026-05-07 16:49 | 11.29414 | 122.93361 | 35894 ft | 468 kts | 329° |
| 2026-05-07 16:50 | 11.35071 | 122.90031 | 35894 ft | 468 kts | 329° |
| 2026-05-07 16:50 | 11.40681 | 122.86731 | 35894 ft | 468 kts | 329° |
| 2026-05-07 16:51 | 11.46337 | 122.83399 | 35894 ft | 468 kts | 329° |
| 2026-05-07 16:51 | 11.51993 | 122.80064 | 35894 ft | 468 kts | 329° |
| 2026-05-07 16:52 | 11.57672 | 122.76713 | 35894 ft | 468 kts | 329° |
| 2026-05-07 16:52 | 11.63192 | 122.73186 | 35894 ft | 468 kts | 326° |
| 2026-05-07 16:53 | 11.68631 | 122.69524 | 35894 ft | 468 kts | 326° |
| 2026-05-07 16:53 | 11.74087 | 122.65843 | 35894 ft | 468 kts | 326° |
| 2026-05-07 16:54 | 11.79510 | 122.62187 | 35894 ft | 468 kts | 326° |
| 2026-05-07 16:54 | 11.84963 | 122.58512 | 35894 ft | 468 kts | 326° |
| 2026-05-07 16:55 | 11.90426 | 122.54828 | 35894 ft | 468 kts | 326° |
| 2026-05-07 16:55 | 11.95844 | 122.51173 | 35894 ft | 468 kts | 326° |
| 2026-05-07 16:56 | 12.01290 | 122.47497 | 35894 ft | 468 kts | 326° |
| 2026-05-07 16:56 | 12.09488 | 122.41959 | 35894 ft | 468 kts | 326° |
| 2026-05-07 16:57 | 12.14930 | 122.38283 | 35894 ft | 468 kts | 326° |
| 2026-05-07 16:57 | 12.20413 | 122.34576 | 35894 ft | 468 kts | 326° |
| 2026-05-07 16:58 | 12.25828 | 122.30912 | 35894 ft | 468 kts | 326° |
| 2026-05-07 16:58 | 12.31284 | 122.27218 | 35894 ft | 468 kts | 326° |
| 2026-05-07 16:59 | 12.36695 | 122.23552 | 35894 ft | 468 kts | 326° |
| 2026-05-07 16:59 | 12.42106 | 122.19820 | 35894 ft | 468 kts | 325° |
| 2026-05-07 17:00 | 12.47512 | 122.16060 | 35894 ft | 468 kts | 325° |
| 2026-05-07 17:00 | 12.52879 | 122.12328 | 35894 ft | 468 kts | 325° |
| 2026-05-07 17:01 | 12.58262 | 122.08585 | 35894 ft | 468 kts | 325° |
| 2026-05-07 17:01 | 12.63667 | 122.04826 | 35894 ft | 468 kts | 325° |
| 2026-05-07 17:02 | 12.69037 | 122.01090 | 35893 ft | 466 kts | 325° |
| 2026-05-07 17:02 | 12.71692 | 121.99243 | 35888 ft | 452 kts | 325° |
| 2026-05-07 17:02 | 12.74280 | 121.97443 | 35619 ft | 447 kts | 325° |
| 2026-05-07 17:03 | 12.76859 | 121.95647 | 35161 ft | 444 kts | 325° |
| 2026-05-07 17:03 | 12.79424 | 121.93860 | 34570 ft | 444 kts | 325° |
| 2026-05-07 17:03 | 12.81976 | 121.92082 | 33924 ft | 445 kts | 325° |
| 2026-05-07 17:03 | 12.84544 | 121.90292 | 33252 ft | 446 kts | 325° |
| 2026-05-07 17:04 | 12.87086 | 121.88519 | 32574 ft | 447 kts | 325° |
| 2026-05-07 17:04 | 12.89684 | 121.86708 | 31872 ft | 448 kts | 325° |
| 2026-05-07 17:04 | 12.92240 | 121.84926 | 31234 ft | 447 kts | 325° |
| 2026-05-07 17:04 | 12.94810 | 121.83133 | 30784 ft | 442 kts | 325° |
| 2026-05-07 17:05 | 12.96522 | 121.81939 | 30481 ft | 438 kts | 325° |
| 2026-05-07 17:05 | 12.99850 | 121.79616 | 29864 ft | 433 kts | 325° |
| 2026-05-07 17:05 | 13.02351 | 121.77870 | 29375 ft | 429 kts | 325° |
| 2026-05-07 17:05 | 13.04792 | 121.76166 | 28886 ft | 426 kts | 325° |
| 2026-05-07 17:06 | 13.07241 | 121.74455 | 28390 ft | 422 kts | 324° |
| 2026-05-07 17:06 | 13.09676 | 121.72753 | 27897 ft | 419 kts | 324° |
| 2026-05-07 17:06 | 13.12092 | 121.71064 | 27404 ft | 416 kts | 324° |
| 2026-05-07 17:06 | 13.14397 | 121.69454 | 26939 ft | 413 kts | 324° |
| 2026-05-07 17:07 | 13.16765 | 121.67799 | 26482 ft | 409 kts | 324° |
| 2026-05-07 17:07 | 13.19133 | 121.66143 | 26041 ft | 405 kts | 324° |
| 2026-05-07 17:07 | 13.21443 | 121.64528 | 25613 ft | 401 kts | 324° |
| 2026-05-07 17:07 | 13.23759 | 121.62907 | 25184 ft | 397 kts | 324° |
| 2026-05-07 17:08 | 13.26014 | 121.61329 | 24767 ft | 393 kts | 324° |
| 2026-05-07 17:08 | 13.28265 | 121.59753 | 24351 ft | 389 kts | 324° |
| 2026-05-07 17:08 | 13.30507 | 121.58182 | 23933 ft | 386 kts | 324° |
| 2026-05-07 17:08 | 13.32696 | 121.56649 | 23524 ft | 382 kts | 324° |
| 2026-05-07 17:09 | 13.34901 | 121.55105 | 23112 ft | 379 kts | 324° |
| 2026-05-07 17:09 | 13.37069 | 121.53585 | 22706 ft | 375 kts | 324° |
| 2026-05-07 17:09 | 13.39230 | 121.52071 | 22300 ft | 372 kts | 324° |
| 2026-05-07 17:09 | 13.41349 | 121.50585 | 21900 ft | 369 kts | 323° |
| 2026-05-07 17:10 | 13.43463 | 121.49102 | 21499 ft | 366 kts | 323° |
| 2026-05-07 17:10 | 13.45579 | 121.47618 | 21097 ft | 364 kts | 323° |
| 2026-05-07 17:10 | 13.47648 | 121.46166 | 20701 ft | 361 kts | 323° |
| 2026-05-07 17:10 | 13.49716 | 121.44714 | 20305 ft | 358 kts | 323° |
| 2026-05-07 17:11 | 13.51774 | 121.43270 | 19943 ft | 354 kts | 323° |
| 2026-05-07 17:11 | 13.53791 | 121.41856 | 19837 ft | 341 kts | 323° |
| 2026-05-07 17:11 | 13.55721 | 121.40502 | 19730 ft | 329 kts | 323° |
| 2026-05-07 17:11 | 13.57573 | 121.39198 | 19587 ft | 322 kts | 322° |
| 2026-05-07 17:12 | 13.59406 | 121.37852 | 19191 ft | 321 kts | 322° |
| 2026-05-07 17:12 | 13.61201 | 121.36509 | 18820 ft | 319 kts | 321° |
| 2026-05-07 17:12 | 13.63018 | 121.35148 | 18457 ft | 317 kts | 321° |
| 2026-05-07 17:12 | 13.64800 | 121.33815 | 18106 ft | 314 kts | 321° |
| 2026-05-07 17:13 | 13.66559 | 121.32501 | 17759 ft | 312 kts | 321° |
| 2026-05-07 17:13 | 13.68302 | 121.31200 | 17415 ft | 310 kts | 321° |
| 2026-05-07 17:13 | 13.70052 | 121.29894 | 17068 ft | 308 kts | 321° |
| 2026-05-07 17:13 | 13.71791 | 121.28597 | 16723 ft | 306 kts | 321° |
| 2026-05-07 17:14 | 13.73512 | 121.27313 | 16382 ft | 304 kts | 321° |
| 2026-05-07 17:14 | 13.75225 | 121.26035 | 16038 ft | 302 kts | 321° |
| 2026-05-07 17:14 | 13.76915 | 121.24773 | 15697 ft | 300 kts | 322° |
| 2026-05-07 17:14 | 13.78610 | 121.23509 | 15355 ft | 298 kts | 322° |
| 2026-05-07 17:15 | 13.80297 | 121.22250 | 15013 ft | 296 kts | 322° |
| 2026-05-07 17:15 | 13.81961 | 121.21008 | 14673 ft | 295 kts | 322° |
| 2026-05-07 17:15 | 13.83626 | 121.19765 | 14332 ft | 293 kts | 322° |
| 2026-05-07 17:15 | 13.85259 | 121.18545 | 13997 ft | 291 kts | 322° |
| 2026-05-07 17:16 | 13.86911 | 121.17311 | 13651 ft | 289 kts | 322° |
| 2026-05-07 17:16 | 13.88523 | 121.16106 | 13308 ft | 287 kts | 322° |
| 2026-05-07 17:16 | 13.90141 | 121.14898 | 12962 ft | 285 kts | 322° |
| 2026-05-07 17:16 | 13.91756 | 121.13691 | 12615 ft | 283 kts | 322° |
| 2026-05-07 17:17 | 13.93339 | 121.12508 | 12275 ft | 281 kts | 322° |
| 2026-05-07 17:17 | 13.94927 | 121.11321 | 11934 ft | 280 kts | 322° |
| 2026-05-07 17:17 | 13.96521 | 121.10131 | 11582 ft | 278 kts | 322° |
| 2026-05-07 17:17 | 13.98069 | 121.08975 | 11224 ft | 277 kts | 322° |
| 2026-05-07 17:18 | 13.99643 | 121.07800 | 10850 ft | 276 kts | 322° |
| 2026-05-07 17:18 | 14.01191 | 121.06642 | 10478 ft | 276 kts | 322° |
| 2026-05-07 17:18 | 14.02753 | 121.05474 | 10119 ft | 277 kts | 322° |
| 2026-05-07 17:18 | 14.04343 | 121.04284 | 10003 ft | 286 kts | 322° |
| 2026-05-07 17:19 | 14.05979 | 121.03059 | 10001 ft | 288 kts | 322° |
| 2026-05-07 17:19 | 14.07609 | 121.01839 | 9999 ft | 289 kts | 322° |
| 2026-05-07 17:19 | 14.09234 | 121.00623 | 9999 ft | 289 kts | 322° |
| 2026-05-07 17:19 | 14.10855 | 120.99410 | 9925 ft | 285 kts | 322° |
| 2026-05-07 17:20 | 14.12485 | 120.98191 | 9505 ft | 286 kts | 322° |
| 2026-05-07 17:20 | 14.14102 | 120.96980 | 9022 ft | 288 kts | 322° |
| 2026-05-07 17:20 | 14.15733 | 120.95758 | 8709 ft | 283 kts | 322° |
| 2026-05-07 17:20 | 14.17323 | 120.94609 | 8451 ft | 277 kts | 325° |
| 2026-05-07 17:21 | 14.18976 | 120.93588 | 8159 ft | 273 kts | 328° |
| 2026-05-07 17:21 | 14.20600 | 120.92631 | 7870 ft | 269 kts | 328° |
| 2026-05-07 17:21 | 14.22222 | 120.91678 | 7590 ft | 265 kts | 328° |
| 2026-05-07 17:21 | 14.23830 | 120.90733 | 7314 ft | 261 kts | 328° |
| 2026-05-07 17:22 | 14.25386 | 120.89814 | 7031 ft | 257 kts | 328° |
| 2026-05-07 17:22 | 14.26926 | 120.88904 | 6780 ft | 251 kts | 328° |
| 2026-05-07 17:22 | 14.28414 | 120.88027 | 6528 ft | 247 kts | 328° |
| 2026-05-07 17:22 | 14.29929 | 120.87140 | 6249 ft | 243 kts | 328° |
| 2026-05-07 17:23 | 14.31394 | 120.86283 | 5985 ft | 239 kts | 328° |
| 2026-05-07 17:23 | 14.32835 | 120.85440 | 5725 ft | 235 kts | 328° |
| 2026-05-07 17:23 | 14.34230 | 120.84622 | 5506 ft | 228 kts | 329° |
| 2026-05-07 17:23 | 14.35587 | 120.83827 | 5316 ft | 217 kts | 328° |
| 2026-05-07 17:24 | 14.36888 | 120.83065 | 4991 ft | 213 kts | 328° |
| 2026-05-07 17:24 | 14.38219 | 120.82430 | 4644 ft | 211 kts | 347° |
| 2026-05-07 17:24 | 14.39657 | 120.82584 | 4308 ft | 205 kts | 26° |
| 2026-05-07 17:24 | 14.40698 | 120.83515 | 4011 ft | 196 kts | 58° |
| 2026-05-07 17:25 | 14.41370 | 120.84694 | 3759 ft | 188 kts | 64° |
| 2026-05-07 17:25 | 14.41972 | 120.85865 | 3484 ft | 179 kts | 65° |
| 2026-05-07 17:25 | 14.42561 | 120.86996 | 3105 ft | 179 kts | 64° |
| 2026-05-07 17:25 | 14.43168 | 120.88137 | 2690 ft | 181 kts | 63° |
| 2026-05-07 17:26 | 14.43776 | 120.89253 | 2386 ft | 176 kts | 63° |
| 2026-05-07 17:26 | 14.44355 | 120.90299 | 2136 ft | 158 kts | 63° |
| 2026-05-07 17:26 | 14.44899 | 120.91279 | 1939 ft | 151 kts | 63° |
| 2026-05-07 17:26 | 14.45423 | 120.92226 | 1736 ft | 151 kts | 63° |
| 2026-05-07 17:27 | 14.45943 | 120.93166 | 1562 ft | 150 kts | 63° |
| 2026-05-07 17:27 | 14.46467 | 120.94109 | 1391 ft | 150 kts | 63° |
| 2026-05-07 17:27 | 14.46986 | 120.95042 | 1202 ft | 149 kts | 63° |
| 2026-05-07 17:27 | 14.47512 | 120.95986 | 1005 ft | 149 kts | 63° |
| 2026-05-07 17:28 | 14.48022 | 120.96903 | 814 ft | 146 kts | 60° |
| 2026-05-07 17:28 | 14.48565 | 120.97801 | 580 ft | 147 kts | 62° |
| 2026-05-07 17:28 | 14.49070 | 120.98714 | 421 ft | 146 kts | 63° |
| 2026-05-07 17:28 | 14.49577 | 120.99631 | 228 ft | 146 kts | 63° |
| 2026-05-07 17:29 | 14.50079 | 121.00541 | 93 ft | 139 kts | 63° |
| 2026-05-07 17:29 | 14.50476 | 121.01259 | 84 ft | 77 kts | 60° |
| 2026-05-07 17:29 | 14.50681 | 121.01623 | 84 ft | 34 kts | 53° |
| 2026-05-07 17:29 | 14.50774 | 121.01725 | 84 ft | 11 kts | 39° |
| 2026-05-07 17:30 | 14.50817 | 121.01759 | 84 ft | 7 kts | 37° |
| 2026-05-07 17:30 | 14.50846 | 121.01781 | 84 ft | 4 kts | 37° |
| 2026-05-07 17:30 | 14.50875 | 121.01791 | 84 ft | 4 kts | 353° |
| 2026-05-07 17:30 | 14.50904 | 121.01773 | 84 ft | 5 kts | 316° |
| 2026-05-07 17:31 | 14.50933 | 121.01743 | 84 ft | 7 kts | 316° |
| 2026-05-07 17:31 | 14.50976 | 121.01699 | 84 ft | 10 kts | 314° |
| 2026-05-07 17:31 | 14.51035 | 121.01638 | 84 ft | 13 kts | 315° |
| 2026-05-07 17:31 | 14.51105 | 121.01566 | 84 ft | 15 kts | 315° |
| 2026-05-07 17:32 | 14.51167 | 121.01502 | 84 ft | 10 kts | 315° |
| 2026-05-07 17:32 | 14.51181 | 121.01487 | 84 ft | 0 kts | 315° |
| 2026-05-07 17:32 | 14.51185 | 121.01483 | 84 ft | 2 kts | 315° |
| 2026-05-07 17:33 | 14.51216 | 121.01450 | 84 ft | 7 kts | 315° |
| 2026-05-07 17:33 | 14.51275 | 121.01429 | 84 ft | 11 kts | 25° |
| 2026-05-07 17:33 | 14.51337 | 121.01497 | 84 ft | 13 kts | 51° |
| 2026-05-07 17:33 | 14.51401 | 121.01567 | 84 ft | 13 kts | 44° |
| 2026-05-07 17:34 | 14.51473 | 121.01623 | 84 ft | 12 kts | 41° |
| 2026-05-07 17:34 | 14.51534 | 121.01684 | 84 ft | 11 kts | 45° |
| 2026-05-07 17:34 | 14.51590 | 121.01742 | 84 ft | 11 kts | 44° |
| 2026-05-07 17:34 | 14.51649 | 121.01787 | 84 ft | 10 kts | 12° |
| 2026-05-07 17:35 | 14.51710 | 121.01762 | 84 ft | 9 kts | 317° |
| 2026-05-07 17:35 | 14.51756 | 121.01714 | 84 ft | 8 kts | 315° |
| 2026-05-07 17:35 | 14.51767 | 121.01672 | 84 ft | 5 kts | 239° |
| 2026-05-07 17:35 | 14.51750 | 121.01653 | 84 ft | 1 kts | 224° |
| 2026-05-07 17:36 | 14.51747 | 121.01650 | 84 ft | 0 kts | 225° |
| 2026-05-07 17:36 | 14.51745 | 121.01648 | 84 ft | 0 kts | 225° |
| 2026-05-07 17:36 | 14.51740 | 121.01643 | 84 ft | 0 kts | 224° |
| 2026-05-07 17:36 | 14.51738 | 121.01642 | 84 ft | 0 kts | 224° |
| 2026-05-07 17:37 | 14.51738 | 121.01641 | 84 ft | 0 kts | 224° |